Aérodrome :
LOGIN :

S'inscrire | Disclaimer

   EN    FR    IT 

 










Légende :    VFR   VFR Marginal   IFR   IFR Intensif   IFR Très Intensif
Visi : 
Plafond : 
>= 8 km
>= 3000ft
5 à 8 km
1000 à 3000 ft
1500m à 5 km
500 à 1000 ft
800 à 1500m
200 à 500 ft
< 800m
< 200 ft
Symboles :   Orages  Brouillard  Fortes neiges  Fortes précipitations  Vent > 20 kt
SIGMETs :   Divers  Orages  Givrage  Turbulence  Onde Orograph.  Cendres Volcan.






- Altitude de l'aérodrome : 131 ft
- Code IATA : PAS


LGPA - Paros

DERNIER METAR :
  • 140550Z 03003KT 9999 FEW025 15/14 Q1010

METARs EXPIRÉS :
  • 140520Z 06007KT 9999 FEW025 15/13 Q1009
  • 140450Z AUTO 08005KT //// // ////// 15/14 Q1010 RE//
  • 140420Z AUTO 08004KT //// // ////// 15/14 Q1010 RE//
  • 140350Z AUTO VRB03KT //// // ////// 15/14 Q1010 RE//
  • 140320Z AUTO VRB02KT //// // ////// 15/14 Q1010 RE//

TAF N/A



MET'MAP, la Météo Aéronautique d'un coup d'oeil ! - Copyright ORBIFLY Décembre 2007 - Disclaimer

ORBIFLY MET'MAP TEAM :

Programmation & Développement : Alexandra Zaïnal
Conception & Développement : Baudouin d'Aumeries
Co-Programmation & Développement : Marc-Olivier Méhu
Soutien technique & logistique : Manuel Goepfert

Contact : metmap@orbifly.com




SOURCES & CREDITS :

   NOAA